Time;durP1;ratioP1;P1;durP2;ratioP2;P2;SDS_P1;SDS_P2;PMS_P1;PMS_P2;Temp;Humidity;BMP_temperature;BMP_pressure;BME280_temperature;BME280_humidity;BME280_pressure;Samples;Min_cycle;Max_cycle;Signal;HPM_P1;HPM_P2
2023/02/24 00:01:26;;;;;;;;;;;;;;;;;;4902765;29;19922;-74
2023/02/24 00:03:52;;;;;;;;;;;;;;;;;;4894545;29;19923;-76
2023/02/24 00:06:18;;;;;;;;;;;;;;;;;;4907608;29;19919;-73
2023/02/24 00:08:44;;;;;;;;;;;;;;;;;;4890953;29;19922;-73
2023/02/24 00:11:11;;;;;;;;;;;;;;;;;;4896354;29;19952;-74
2023/02/24 00:13:37;;;;;;;;;;;;;;;;;;4885856;29;20016;-73
2023/02/24 00:16:04;;;;;;;;;;;;;;;;;;4911689;29;19922;-73
2023/02/24 00:18:31;;;;;;;;;;;;;;;;;;4898165;29;19920;-74
2023/02/24 00:20:57;;;;;;;;;;;;;;;;;;4913587;29;20155;-74
2023/02/24 00:23:23;;;;;;;;;;;;;;;;;;4909282;29;19914;-74
2023/02/24 00:25:51;;;;;;;;;;;;;;;;;;4896396;29;19933;-76
2023/02/24 00:28:17;;;;;;;;;;;;;;;;;;4908222;29;19915;-75
2023/02/24 00:30:43;;;;;;;;;;;;;;;;;;4907301;29;20429;-75
2023/02/24 00:33:11;;;;;;;;;;;;;;;;;;4909484;29;20453;-75
2023/02/24 00:35:37;;;;;;;;;;;;;;;;;;4905048;29;19915;-74
2023/02/24 00:38:15;;;;;;;;;;;;;;;;;;4897477;29;19937;-75
2023/02/24 00:40:44;;;;;;;;;;;;;;;;;;4905707;28;20219;-74
2023/02/24 00:43:10;;;;;;;;;;;;;;;;;;4889690;29;20261;-74
2023/02/24 00:45:38;;;;;;;;;;;;;;;;;;4887365;29;20932;-76
2023/02/24 00:48:04;;;;;;;;;;;;;;;;;;4908762;29;19929;-74
2023/02/24 00:50:30;;;;;;;;;;;;;;;;;;4904808;29;19954;-75
2023/02/24 00:52:56;;;;;;;;;;;;;;;;;;4907835;29;19970;-74
2023/02/24 00:55:22;;;;;;;;;;;;;;;;;;4902232;29;20352;-74
2023/02/24 00:57:51;;;;;;;;;;;;;;;;;;4888768;29;19974;-74
2023/02/24 01:00:18;;;;;;;;;;;;;;;;;;4905682;29;20314;-74
2023/02/24 01:02:45;;;;;;;;;;;;;;;;;;4903806;29;20429;-74
2023/02/24 01:05:11;;;;;;;;;;;;;;;;;;4892267;29;20210;-74
2023/02/24 01:07:37;;;;;;;;;;;;;;;;;;4904155;29;20147;-74
2023/02/24 01:10:04;;;;;;;;;;;;;;;;;;4903601;29;20024;-73
2023/02/24 01:12:48;;;;;;;;;;;;;;;;;;4902347;29;19930;-74
2023/02/24 01:15:15;;;;;;;;;;;;;;;;;;4905558;29;19915;-74
2023/02/24 01:17:41;;;;;;;;;;;;;;;;;;4909407;29;19914;-73
2023/02/24 01:20:17;;;;;;;;;;;;;;;;;;4910249;29;20436;-73
2023/02/24 01:22:43;;;;;;;;;;;;;;;;;;4905612;29;19918;-74
2023/02/24 01:25:10;;;;;;;;;;;;;;;;;;4907389;29;19927;-74
2023/02/24 01:27:36;;;;;;;;;;;;;;;;;;4900735;29;19977;-75
2023/02/24 01:30:03;;;;;;;;;;;;;;;;;;4892999;29;20015;-74
2023/02/24 01:32:30;;;;;;;;;;;;;;;;;;4906388;29;19925;-74
2023/02/24 01:34:56;;;;;;;;;;;;;;;;;;4895163;29;20277;-74
2023/02/24 01:37:22;;;;;;;;;;;;;;;;;;4886575;29;20347;-75
2023/02/24 01:39:49;;;;;;;;;;;;;;;;;;4903775;29;20064;-75
2023/02/24 01:42:15;;;;;;;;;;;;;;;;;;4903084;29;20421;-73
2023/02/24 01:44:42;;;;;;;;;;;;;;;;;;4883378;29;20235;-74
2023/02/24 01:47:08;;;;;;;;;;;;;;;;;;4905686;29;19925;-74
2023/02/24 01:49:35;;;;;;;;;;;;;;;;;;4905294;29;20432;-73
2023/02/24 01:52:01;;;;;;;;;;;;;;;;;;4901824;29;20243;-74
2023/02/24 01:54:27;;;;;;;;;;;;;;;;;;4903544;29;19922;-75
2023/02/24 01:56:53;;;;;;;;;;;;;;;;;;4890503;29;20143;-73
2023/02/24 01:59:19;;;;;;;;;;;;;;;;;;4903665;29;20017;-74
2023/02/24 02:01:46;;;;;;;;;;;;;;;;;;4908756;29;20357;-74
2023/02/24 02:04:12;;;;;;;;;;;;;;;;;;4893266;29;19918;-74
2023/02/24 02:06:38;;;;;;;;;;;;;;;;;;4905120;29;20570;-74
2023/02/24 02:09:06;;;;;;;;;;;;;;;;;;4891695;29;20010;-74
2023/02/24 02:11:32;;;;;;;;;;;;;;;;;;4901833;29;20052;-76
2023/02/24 02:13:59;;;;;;;;;;;;;;;;;;4908587;29;20633;-73
2023/02/24 02:16:25;;;;;;;;;;;;;;;;;;4906357;29;19965;-73
2023/02/24 02:18:54;;;;;;;;;;;;;;;;;;4907736;29;20401;-74
2023/02/24 02:21:20;;;;;;;;;;;;;;;;;;4902421;29;19946;-74
2023/02/24 02:23:46;;;;;;;;;;;;;;;;;;4906830;29;19927;-74
2023/02/24 02:26:16;;;;;;;;;;;;;;;;;;4896604;29;19922;-74
2023/02/24 02:28:44;;;;;;;;;;;;;;;;;;4909048;29;20204;-73
2023/02/24 02:31:11;;;;;;;;;;;;;;;;;;4889794;29;19922;-74
2023/02/24 02:33:38;;;;;;;;;;;;;;;;;;4904807;29;19919;-74
2023/02/24 02:36:05;;;;;;;;;;;;;;;;;;4891188;29;19921;-74
2023/02/24 02:38:33;;;;;;;;;;;;;;;;;;4887221;29;20376;-74
2023/02/24 02:40:59;;;;;;;;;;;;;;;;;;4905115;29;19922;-74
2023/02/24 02:43:25;;;;;;;;;;;;;;;;;;4902439;29;20502;-74
2023/02/24 02:45:51;;;;;;;;;;;;;;;;;;4906760;29;19914;-73
2023/02/24 02:48:17;;;;;;;;;;;;;;;;;;4904416;29;20238;-73
2023/02/24 02:50:44;;;;;;;;;;;;;;;;;;4901316;29;19957;-73
2023/02/24 02:53:10;;;;;;;;;;;;;;;;;;4888720;29;20360;-73
2023/02/24 02:55:36;;;;;;;;;;;;;;;;;;4888333;29;20562;-73
2023/02/24 02:58:02;;;;;;;;;;;;;;;;;;4904731;29;20117;-73
2023/02/24 03:00:28;;;;;;;;;;;;;;;;;;4910718;28;20088;-73
2023/02/24 03:02:54;;;;;;;;;;;;;;;;;;4906731;29;19922;-75
2023/02/24 03:05:20;;;;;;;;;;;;;;;;;;4904512;29;20723;-73
2023/02/24 03:07:46;;;;;;;;;;;;;;;;;;4906614;29;19918;-74
2023/02/24 03:10:16;;;;;;;;;;;;;;;;;;4909810;29;19915;-73
2023/02/24 03:12:42;;;;;;;;;;;;;;;;;;4909219;29;19914;-73
2023/02/24 03:15:09;;;;;;;;;;;;;;;;;;4893869;29;19999;-73
2023/02/24 03:17:35;;;;;;;;;;;;;;;;;;4889817;29;24842;-73
2023/02/24 03:20:11;;;;;;;;;;;;;;;;;;4910606;29;20448;-74
2023/02/24 03:22:37;;;;;;;;;;;;;;;;;;4905741;29;19914;-73
2023/02/24 03:25:04;;;;;;;;;;;;;;;;;;4910911;29;19918;-73
2023/02/24 03:27:30;;;;;;;;;;;;;;;;;;4906193;29;20458;-73
2023/02/24 03:29:57;;;;;;;;;;;;;;;;;;4910945;29;19914;-73
2023/02/24 03:32:23;;;;;;;;;;;;;;;;;;4900984;29;19978;-73
2023/02/24 03:34:49;;;;;;;;;;;;;;;;;;4896185;29;20820;-73
2023/02/24 03:37:15;;;;;;;;;;;;;;;;;;4905716;29;19974;-72
2023/02/24 03:39:41;;;;;;;;;;;;;;;;;;4906247;29;19923;-73
2023/02/24 03:42:07;;;;;;;;;;;;;;;;;;4903951;29;20331;-73
2023/02/24 03:44:33;;;;;;;;;;;;;;;;;;4904518;29;20265;-73
2023/02/24 03:46:59;;;;;;;;;;;;;;;;;;4915950;29;19958;-73
2023/02/24 03:49:26;;;;;;;;;;;;;;;;;;4903841;29;20029;-73
2023/02/24 03:51:55;;;;;;;;;;;;;;;;;;4904303;29;19915;-73
2023/02/24 03:54:21;;;;;;;;;;;;;;;;;;4888972;29;19914;-73
2023/02/24 03:59:32;;;;;;;;;;;;;;;;;;5513533;23;19996;-72
2023/02/24 04:01:58;;;;;;;;;;;;;;;;;;4923701;28;19914;-73
2023/02/24 04:04:26;;;;;;;;;;;;;;;;;;4934330;28;20040;-73
2023/02/24 04:06:52;;;;;;;;;;;;;;;;;;4938342;28;20074;-73
2023/02/24 04:09:19;;;;;;;;;;;;;;;;;;4949329;28;19914;-72
2023/02/24 04:11:44;;;;;;;;;;;;;;;;;;4939756;28;20054;-73
2023/02/24 04:14:11;;;;;;;;;;;;;;;;;;4941310;28;19942;-72
2023/02/24 04:16:38;;;;;;;;;;;;;;;;;;4953475;28;19914;-72
2023/02/24 04:19:04;;;;;;;;;;;;;;;;;;4951983;28;20344;-73
2023/02/24 04:21:31;;;;;;;;;;;;;;;;;;4934374;28;20812;-72
2023/02/24 04:23:57;;;;;;;;;;;;;;;;;;4938048;28;19918;-72
2023/02/24 04:26:23;;;;;;;;;;;;;;;;;;4931825;28;20154;-73
2023/02/24 04:28:49;;;;;;;;;;;;;;;;;;4929830;28;19922;-73
2023/02/24 04:31:17;;;;;;;;;;;;;;;;;;4934705;28;19920;-72
2023/02/24 04:33:43;;;;;;;;;;;;;;;;;;4936511;28;20928;-72
2023/02/24 04:36:11;;;;;;;;;;;;;;;;;;4939360;28;19914;-72
2023/02/24 04:38:37;;;;;;;;;;;;;;;;;;4926431;28;19915;-72
2023/02/24 04:41:03;;;;;;;;;;;;;;;;;;4932733;28;19921;-72
2023/02/24 04:43:29;;;;;;;;;;;;;;;;;;4933415;28;19926;-73
2023/02/24 04:45:55;;;;;;;;;;;;;;;;;;4923143;28;19921;-72
2023/02/24 04:48:21;;;;;;;;;;;;;;;;;;4904724;28;20514;-74
2023/02/24 04:53:32;;;;;;;;;;;;;;;;;;4919833;28;19961;-74
2023/02/24 04:55:58;;;;;;;;;;;;;;;;;;4913737;28;19915;-74
2023/02/24 04:58:27;;;;;;;;;;;;;;;;;;4918684;28;19919;-74
2023/02/24 05:00:54;;;;;;;;;;;;;;;;;;4892823;29;19945;-74
2023/02/24 05:03:20;;;;;;;;;;;;;;;;;;4895473;29;20326;-72
2023/02/24 05:05:46;;;;;;;;;;;;;;;;;;4900716;29;19923;-75
2023/02/24 05:08:14;;;;;;;;;;;;;;;;;;4898510;29;19926;-75
2023/02/24 05:10:40;;;;;;;;;;;;;;;;;;4884434;29;20372;-75
2023/02/24 05:13:07;;;;;;;;;;;;;;;;;;4898992;29;20448;-75
2023/02/24 05:15:34;;;;;;;;;;;;;;;;;;4883830;29;19914;-73
2023/02/24 05:18:00;;;;;;;;;;;;;;;;;;4897899;29;20399;-75
2023/02/24 05:23:10;;;;;;;;;;;;;;;;;;4897235;29;20824;-75
2023/02/24 05:25:36;;;;;;;;;;;;;;;;;;4892501;29;19919;-72
2023/02/24 05:28:02;;;;;;;;;;;;;;;;;;4896743;29;19921;-73
2023/02/24 05:30:28;;;;;;;;;;;;;;;;;;4882358;29;19923;-73
2023/02/24 05:32:55;;;;;;;;;;;;;;;;;;4899235;29;20352;-72
2023/02/24 05:35:21;;;;;;;;;;;;;;;;;;4880676;29;20323;-73
2023/02/24 05:37:47;;;;;;;;;;;;;;;;;;4897966;29;20325;-73
2023/02/24 05:40:13;;;;;;;;;;;;;;;;;;4884718;29;19915;-73
2023/02/24 05:42:39;;;;;;;;;;;;;;;;;;4896099;29;20440;-73
2023/02/24 05:45:05;;;;;;;;;;;;;;;;;;4884202;29;20009;-73
2023/02/24 05:47:31;;;;;;;;;;;;;;;;;;4896262;29;20775;-73
2023/02/24 05:49:57;;;;;;;;;;;;;;;;;;4880758;29;20331;-74
2023/02/24 05:52:23;;;;;;;;;;;;;;;;;;4897726;29;19915;-73
2023/02/24 05:54:49;;;;;;;;;;;;;;;;;;4896450;29;20328;-72
2023/02/24 05:57:18;;;;;;;;;;;;;;;;;;4893897;29;20240;-74
2023/02/24 05:59:44;;;;;;;;;;;;;;;;;;4904309;28;20190;-74
2023/02/24 06:02:10;;;;;;;;;;;;;;;;;;4925531;28;19994;-73
2023/02/24 06:04:39;;;;;;;;;;;;;;;;;;4917788;28;19928;-73
2023/02/24 06:07:05;;;;;;;;;;;;;;;;;;4919227;28;19914;-74
2023/02/24 06:09:30;;;;;;;;;;;;;;;;;;4914805;28;20198;-74
2023/02/24 06:11:57;;;;;;;;;;;;;;;;;;4918620;28;20189;-73
2023/02/24 06:14:23;;;;;;;;;;;;;;;;;;4920473;28;20540;-74
2023/02/24 06:16:49;;;;;;;;;;;;;;;;;;4923848;28;19914;-74
2023/02/24 06:19:15;;;;;;;;;;;;;;;;;;4916351;28;20395;-74
2023/02/24 06:21:42;;;;;;;;;;;;;;;;;;4907643;28;20348;-74
2023/02/24 06:24:08;;;;;;;;;;;;;;;;;;4916210;28;20049;-74
2023/02/24 06:26:35;;;;;;;;;;;;;;;;;;4902104;28;19918;-74
2023/02/24 06:29:03;;;;;;;;;;;;;;;;;;4922356;28;19914;-76
2023/02/24 06:31:29;;;;;;;;;;;;;;;;;;4905140;28;19980;-73
2023/02/24 06:33:55;;;;;;;;;;;;;;;;;;4915082;28;20090;-74
2023/02/24 06:36:21;;;;;;;;;;;;;;;;;;4916920;28;19936;-74
2023/02/24 06:38:51;;;;;;;;;;;;;;;;;;4903247;28;20733;-74
2023/02/24 06:41:17;;;;;;;;;;;;;;;;;;4908591;28;19982;-73
2023/02/24 06:43:43;;;;;;;;;;;;;;;;;;4925660;28;19913;-74
2023/02/24 06:46:09;;;;;;;;;;;;;;;;;;4925526;28;20447;-74
2023/02/24 06:48:36;;;;;;;;;;;;;;;;;;4914889;28;19918;-73
2023/02/24 06:51:03;;;;;;;;;;;;;;;;;;4919234;28;19921;-73
2023/02/24 06:53:30;;;;;;;;;;;;;;;;;;4921482;28;20021;-73
2023/02/24 06:55:56;;;;;;;;;;;;;;;;;;4906710;28;19915;-73
2023/02/24 06:58:23;;;;;;;;;;;;;;;;;;4903637;28;20341;-73
2023/02/24 07:00:58;;;;;;;;;;;;;;;;;;4894495;29;20042;-75
2023/02/24 07:03:24;;;;;;;;;;;;;;;;;;4900217;29;19914;-73
2023/02/24 07:05:52;;;;;;;;;;;;;;;;;;4887265;29;20022;-75
2023/02/24 07:08:19;;;;;;;;;;;;;;;;;;4897675;29;20343;-73
2023/02/24 07:10:47;;;;;;;;;;;;;;;;;;4887309;29;19921;-73
2023/02/24 07:13:14;;;;;;;;;;;;;;;;;;4888052;29;19915;-76
2023/02/24 07:15:47;;;;;;;;;;;;;;;;;;4905456;29;20455;-74
2023/02/24 07:18:13;;;;;;;;;;;;;;;;;;4898058;29;19919;-74
2023/02/24 07:20:42;;;;;;;;;;;;;;;;;;4894025;29;19915;-75
2023/02/24 07:23:08;;;;;;;;;;;;;;;;;;4884099;29;19994;-73
2023/02/24 07:25:34;;;;;;;;;;;;;;;;;;4896038;29;19923;-74
2023/02/24 07:28:00;;;;;;;;;;;;;;;;;;4885281;29;19953;-74
2023/02/24 07:30:26;;;;;;;;;;;;;;;;;;4903662;29;19915;-73
2023/02/24 07:32:55;;;;;;;;;;;;;;;;;;4901342;29;19970;-73
2023/02/24 07:35:22;;;;;;;;;;;;;;;;;;4884418;29;19940;-74
2023/02/24 07:37:48;;;;;;;;;;;;;;;;;;4900281;29;19935;-74
2023/02/24 07:40:20;;;;;;;;;;;;;;;;;;4888644;29;20172;-74
2023/02/24 07:42:46;;;;;;;;;;;;;;;;;;4887910;29;20073;-74
2023/02/24 07:45:12;;;;;;;;;;;;;;;;;;4887429;29;20379;-74
2023/02/24 07:47:39;;;;;;;;;;;;;;;;;;4900074;29;19918;-74
2023/02/24 07:50:09;;;;;;;;;;;;;;;;;;4900792;29;19910;-74
2023/02/24 07:52:35;;;;;;;;;;;;;;;;;;4900665;29;21281;-73
2023/02/24 07:55:01;;;;;;;;;;;;;;;;;;4903779;29;19918;-74
2023/02/24 07:57:27;;;;;;;;;;;;;;;;;;4885120;29;19915;-73
2023/02/24 07:59:53;;;;;;;;;;;;;;;;;;4910596;28;19922;-75
2023/02/24 08:02:19;;;;;;;;;;;;;;;;;;4902361;28;19946;-74
2023/02/24 08:04:50;;;;;;;;;;;;;;;;;;4904546;28;19918;-74
2023/02/24 08:07:16;;;;;;;;;;;;;;;;;;4925470;28;19914;-74
2023/02/24 08:12:16;;;;;;;;;;;;;;;;;;4925921;28;20372;-74
2023/02/24 08:14:43;;;;;;;;;;;;;;;;;;4922941;28;19918;-74
2023/02/24 08:17:09;;;;;;;;;;;;;;;;;;4923693;28;19914;-74
2023/02/24 08:19:41;;;;;;;;;;;;;;;;;;4924608;28;20930;-74
2023/02/24 08:22:22;;;;;;;;;;;;;;;;;;4905695;28;19950;-73
2023/02/24 08:24:48;;;;;;;;;;;;;;;;;;4917642;28;19922;-74
2023/02/24 08:27:15;;;;;;;;;;;;;;;;;;4921559;28;19922;-75
2023/02/24 08:30:22;;;;;;;;;;;;;;;;;;4919449;28;20053;-75
2023/02/24 08:32:34;;;;;;;;;;;;;;;;;;4915019;28;19954;-74
2023/02/24 08:35:02;;;;;;;;;;;;;;;;;;4921638;28;20328;-75
2023/02/24 08:37:32;;;;;;;;;;;;;;;;;;4923944;28;20033;-74
2023/02/24 08:39:58;;;;;;;;;;;;;;;;;;4921580;28;19917;-74
2023/02/24 08:42:33;;;;;;;;;;;;;;;;;;4919171;28;19918;-74
2023/02/24 08:44:59;;;;;;;;;;;;;;;;;;4919486;28;19918;-74
2023/02/24 08:47:29;;;;;;;;;;;;;;;;;;4921591;28;19922;-74
2023/02/24 08:49:58;;;;;;;;;;;;;;;;;;4906811;28;19949;-75
2023/02/24 08:52:26;;;;;;;;;;;;;;;;;;4902457;28;19921;-74
2023/02/24 08:54:57;;;;;;;;;;;;;;;;;;4906399;28;19914;-74
2023/02/24 08:57:24;;;;;;;;;;;;;;;;;;4919695;28;19914;-74
2023/02/24 08:59:56;;;;;;;;;;;;;;;;;;4925501;28;20340;-74
2023/02/24 09:04:48;;;;;;;;;;;;;;;;;;4926455;28;19925;-73
2023/02/24 09:07:14;;;;;;;;;;;;;;;;;;4927922;28;20415;-74
2023/02/24 09:09:41;;;;;;;;;;;;;;;;;;4924534;28;19966;-73
2023/02/24 09:12:07;;;;;;;;;;;;;;;;;;4905435;28;20287;-74
2023/02/24 09:14:36;;;;;;;;;;;;;;;;;;4917701;28;20102;-74
2023/02/24 09:17:02;;;;;;;;;;;;;;;;;;4906940;28;19922;-74
2023/02/24 09:20:14;;;;;;;;;;;;;;;;;;4918358;28;19918;-74
2023/02/24 09:22:56;;;;;;;;;;;;;;;;;;4921120;28;19915;-74
2023/02/24 09:25:20;;;;;;;;;;;;;;;;;;4924693;28;20009;-73
2023/02/24 09:27:51;;;;;;;;;;;;;;;;;;4902804;28;19919;-73
2023/02/24 09:30:35;;;;;;;;;;;;;;;;;;4906343;28;20454;-73
2023/02/24 09:33:01;;;;;;;;;;;;;;;;;;4905783;28;20005;-73
2023/02/24 09:35:30;;;;;;;;;;;;;;;;;;4908426;28;20291;-73
2023/02/24 09:37:56;;;;;;;;;;;;;;;;;;4909973;28;19915;-75
2023/02/24 09:40:38;;;;;;;;;;;;;;;;;;4920494;28;19961;-74
2023/02/24 09:43:09;;;;;;;;;;;;;;;;;;4907296;28;19937;-74
2023/02/24 09:45:36;;;;;;;;;;;;;;;;;;4906141;28;20598;-74
2023/02/24 09:48:09;;;;;;;;;;;;;;;;;;4922480;28;19919;-74
2023/02/24 09:50:59;;;;;;;;;;;;;;;;;;4914526;28;19919;-74
2023/02/24 09:53:28;;;;;;;;;;;;;;;;;;4915369;28;20328;-74
2023/02/24 09:56:02;;;;;;;;;;;;;;;;;;4917149;28;19926;-73
2023/02/24 09:58:28;;;;;;;;;;;;;;;;;;4904548;28;19915;-74
2023/02/24 10:00:54;;;;;;;;;;;;;;;;;;4923084;28;19970;-75
2023/02/24 10:03:40;;;;;;;;;;;;;;;;;;4918280;28;19921;-73
2023/02/24 10:06:10;;;;;;;;;;;;;;;;;;4918505;28;19918;-74
2023/02/24 10:08:37;;;;;;;;;;;;;;;;;;4914243;28;19919;-75
2023/02/24 10:11:05;;;;;;;;;;;;;;;;;;4919939;28;20235;-74
2023/02/24 10:13:32;;;;;;;;;;;;;;;;;;4920440;28;19960;-74
2023/02/24 10:15:58;;;;;;;;;;;;;;;;;;4905530;28;20101;-74
2023/02/24 10:18:26;;;;;;;;;;;;;;;;;;4923553;28;19953;-74
2023/02/24 10:20:52;;;;;;;;;;;;;;;;;;4904134;28;19961;-74
2023/02/24 10:23:28;;;;;;;;;;;;;;;;;;4922403;28;20352;-74
2023/02/24 10:25:54;;;;;;;;;;;;;;;;;;4924678;28;20136;-74
2023/02/24 10:28:21;;;;;;;;;;;;;;;;;;4917726;28;19915;-75
2023/02/24 10:30:47;;;;;;;;;;;;;;;;;;4913261;28;19937;-74
2023/02/24 10:33:13;;;;;;;;;;;;;;;;;;4926595;28;20352;-74
2023/02/24 10:35:40;;;;;;;;;;;;;;;;;;4921599;28;21270;-74
2023/02/24 10:38:06;;;;;;;;;;;;;;;;;;4910661;28;20383;-74
2023/02/24 10:40:43;;;;;;;;;;;;;;;;;;4927196;28;19918;-75
2023/02/24 10:43:09;;;;;;;;;;;;;;;;;;4930072;28;20391;-74
2023/02/24 10:45:36;;;;;;;;;;;;;;;;;;4924769;28;23262;-74
2023/02/24 10:48:02;;;;;;;;;;;;;;;;;;4929214;28;19922;-75
2023/02/24 10:50:28;;;;;;;;;;;;;;;;;;4907887;28;20275;-74
2023/02/24 10:58:14;;;;;;;;;;;;;;;;;;4926510;28;19914;-74
2023/02/24 11:03:59;;;;;;;;;;;;;;;;;;4925014;28;19925;-75
2023/02/24 11:06:29;;;;;;;;;;;;;;;;;;4925688;28;19958;-76
2023/02/24 11:09:01;;;;;;;;;;;;;;;;;;4926203;28;20050;-74
2023/02/24 11:17:13;;;;;;;;;;;;;;;;;;4924423;28;20467;-73
2023/02/24 11:17:16;;;;;;;;;;;;;;;;;;4924484;28;19937;-74
2023/02/24 11:19:42;;;;;;;;;;;;;;;;;;4902022;28;20823;-72
2023/02/24 11:22:08;;;;;;;;;;;;;;;;;;4899079;29;19918;-73
2023/02/24 11:24:34;;;;;;;;;;;;;;;;;;4917499;28;19918;-74
2023/02/24 11:27:00;;;;;;;;;;;;;;;;;;4927917;28;20714;-74
2023/02/24 11:29:26;;;;;;;;;;;;;;;;;;4899948;28;19914;-73
2023/02/24 11:31:52;;;;;;;;;;;;;;;;;;4905724;28;19918;-73
2023/02/24 11:34:18;;;;;;;;;;;;;;;;;;4916886;28;20013;-73
2023/02/24 11:36:44;;;;;;;;;;;;;;;;;;4928371;28;20277;-73
2023/02/24 11:39:10;;;;;;;;;;;;;;;;;;4926373;28;19913;-74
2023/02/24 11:41:36;;;;;;;;;;;;;;;;;;4926351;28;19968;-73
2023/02/24 11:44:02;;;;;;;;;;;;;;;;;;4924501;28;20184;-74
2023/02/24 11:46:28;;;;;;;;;;;;;;;;;;4903204;28;20443;-74
2023/02/24 11:48:55;;;;;;;;;;;;;;;;;;4927293;28;20029;-74
2023/02/24 11:51:22;;;;;;;;;;;;;;;;;;4921953;28;20534;-72
2023/02/24 11:53:48;;;;;;;;;;;;;;;;;;4923934;28;19915;-74
2023/02/24 11:56:14;;;;;;;;;;;;;;;;;;4905709;28;19953;-73
2023/02/24 11:58:40;;;;;;;;;;;;;;;;;;4922210;28;19949;-73
2023/02/24 12:01:07;;;;;;;;;;;;;;;;;;4924050;28;20446;-74
2023/02/24 12:03:33;;;;;;;;;;;;;;;;;;4903310;28;19937;-74
2023/02/24 12:05:59;;;;;;;;;;;;;;;;;;4910424;28;20414;-73
2023/02/24 12:08:25;;;;;;;;;;;;;;;;;;4903048;28;19915;-74
2023/02/24 12:10:51;;;;;;;;;;;;;;;;;;4925879;28;20428;-74
2023/02/24 12:13:17;;;;;;;;;;;;;;;;;;4904880;28;19914;-74
2023/02/24 12:15:45;;;;;;;;;;;;;;;;;;4906155;28;20361;-74
2023/02/24 12:18:12;;;;;;;;;;;;;;;;;;4906574;28;19910;-74
2023/02/24 12:20:39;;;;;;;;;;;;;;;;;;4903756;28;19918;-78
2023/02/24 12:23:05;;;;;;;;;;;;;;;;;;4905845;28;19914;-77
2023/02/24 12:25:31;;;;;;;;;;;;;;;;;;4906253;28;19924;-75
2023/02/24 12:27:57;;;;;;;;;;;;;;;;;;4918519;28;20003;-78
2023/02/24 12:30:32;;;;;;;;;;;;;;;;;;4919679;28;20410;-77
2023/02/24 12:32:58;;;;;;;;;;;;;;;;;;4904970;28;19914;-79
2023/02/24 12:38:09;;;;;;;;;;;;;;;;;;4923330;28;20052;-79
2023/02/24 12:40:37;;;;;;;;;;;;;;;;;;4916510;28;19925;-78
2023/02/24 12:43:03;;;;;;;;;;;;;;;;;;4914148;28;19915;-78
2023/02/24 12:45:29;;;;;;;;;;;;;;;;;;4910693;28;19930;-76
2023/02/24 12:47:56;;;;;;;;;;;;;;;;;;4915238;28;19941;-74
2023/02/24 12:50:22;;;;;;;;;;;;;;;;;;4911028;28;19919;-73
2023/02/24 12:52:48;;;;;;;;;;;;;;;;;;4917514;28;19969;-75
2023/02/24 12:55:13;;;;;;;;;;;;;;;;;;4914723;28;19937;-78
2023/02/24 12:57:40;;;;;;;;;;;;;;;;;;4914928;28;19914;-76
2023/02/24 13:00:06;;;;;;;;;;;;;;;;;;4905576;29;20350;-77
2023/02/24 13:02:32;;;;;;;;;;;;;;;;;;4893637;29;20379;-76
2023/02/24 13:04:58;;;;;;;;;;;;;;;;;;4898615;29;19923;-72
2023/02/24 13:07:27;;;;;;;;;;;;;;;;;;4898005;29;19938;-76
2023/02/24 13:09:53;;;;;;;;;;;;;;;;;;4901100;29;19922;-73
2023/02/24 13:12:19;;;;;;;;;;;;;;;;;;4894529;29;19911;-71
2023/02/24 13:14:45;;;;;;;;;;;;;;;;;;4900712;29;19919;-72
2023/02/24 13:17:11;;;;;;;;;;;;;;;;;;4896226;29;20670;-72
2023/02/24 13:19:37;;;;;;;;;;;;;;;;;;4892757;29;20325;-72
2023/02/24 13:22:03;;;;;;;;;;;;;;;;;;4894473;29;19914;-72
2023/02/24 13:24:29;;;;;;;;;;;;;;;;;;4896776;29;19923;-73
2023/02/24 13:26:55;;;;;;;;;;;;;;;;;;4898908;29;19923;-72
2023/02/24 13:29:21;;;;;;;;;;;;;;;;;;4895265;29;20017;-72
2023/02/24 13:31:47;;;;;;;;;;;;;;;;;;4899129;29;20455;-72
2023/02/24 13:34:13;;;;;;;;;;;;;;;;;;4892517;29;19977;-72
2023/02/24 13:36:39;;;;;;;;;;;;;;;;;;4897249;29;20010;-72
2023/02/24 13:39:05;;;;;;;;;;;;;;;;;;4897695;29;19922;-72
2023/02/24 13:41:31;;;;;;;;;;;;;;;;;;4894938;29;20012;-73
2023/02/24 13:43:57;;;;;;;;;;;;;;;;;;4898830;29;19914;-73
2023/02/24 13:46:23;;;;;;;;;;;;;;;;;;4898423;29;20028;-73
2023/02/24 13:48:49;;;;;;;;;;;;;;;;;;4897629;29;19925;-72
2023/02/24 13:51:15;;;;;;;;;;;;;;;;;;4896154;29;20433;-71
2023/02/24 13:53:41;;;;;;;;;;;;;;;;;;4893183;29;19914;-71
2023/02/24 13:56:07;;;;;;;;;;;;;;;;;;4911341;28;20112;-72
2023/02/24 13:58:33;;;;;;;;;;;;;;;;;;4896455;29;19923;-73
2023/02/24 14:00:59;;;;;;;;;;;;;;;;;;4899765;29;19994;-71
2023/02/24 14:03:25;;;;;;;;;;;;;;;;;;4895354;29;19923;-71
2023/02/24 14:05:51;;;;;;;;;;;;;;;;;;4897135;29;20515;-71
2023/02/24 14:08:18;;;;;;;;;;;;;;;;;;4892245;29;19922;-70
2023/02/24 14:10:44;;;;;;;;;;;;;;;;;;4899792;29;20322;-71
2023/02/24 14:13:10;;;;;;;;;;;;;;;;;;4897409;29;19919;-70
2023/02/24 14:15:35;;;;;;;;;;;;;;;;;;4894573;29;19915;-70
2023/02/24 14:18:01;;;;;;;;;;;;;;;;;;4893705;29;20214;-71
2023/02/24 14:20:28;;;;;;;;;;;;;;;;;;4890491;29;20283;-71
2023/02/24 14:22:54;;;;;;;;;;;;;;;;;;4892345;29;20379;-72
2023/02/24 14:25:20;;;;;;;;;;;;;;;;;;4893943;29;20391;-70
2023/02/24 14:27:46;;;;;;;;;;;;;;;;;;4899127;29;19921;-71
2023/02/24 14:30:12;;;;;;;;;;;;;;;;;;4894515;29;20629;-70
2023/02/24 14:32:38;;;;;;;;;;;;;;;;;;4895580;29;20219;-70
2023/02/24 14:35:03;;;;;;;;;;;;;;;;;;4895351;29;19922;-71
2023/02/24 14:37:29;;;;;;;;;;;;;;;;;;4890371;29;20028;-72
2023/02/24 14:39:55;;;;;;;;;;;;;;;;;;4900018;29;19921;-73
2023/02/24 14:42:21;;;;;;;;;;;;;;;;;;4894860;29;19958;-71
2023/02/24 14:44:47;;;;;;;;;;;;;;;;;;4895160;29;20464;-72
2023/02/24 14:47:13;;;;;;;;;;;;;;;;;;4899585;29;19990;-72
2023/02/24 14:49:39;;;;;;;;;;;;;;;;;;4888374;29;20233;-72
2023/02/24 14:52:05;;;;;;;;;;;;;;;;;;4899412;29;20479;-72
2023/02/24 14:54:31;;;;;;;;;;;;;;;;;;4898269;29;20053;-72
2023/02/24 14:56:57;;;;;;;;;;;;;;;;;;4899943;29;19916;-72
2023/02/24 14:59:23;;;;;;;;;;;;;;;;;;4893867;29;20321;-72
2023/02/24 15:01:49;;;;;;;;;;;;;;;;;;4900315;29;20447;-72
2023/02/24 15:04:16;;;;;;;;;;;;;;;;;;4896684;29;20044;-72
2023/02/24 15:06:42;;;;;;;;;;;;;;;;;;4899727;29;20017;-72
2023/02/24 15:09:07;;;;;;;;;;;;;;;;;;4900315;29;20017;-70
2023/02/24 15:11:36;;;;;;;;;;;;;;;;;;4897107;29;19914;-72
2023/02/24 15:14:02;;;;;;;;;;;;;;;;;;4902470;29;19919;-71
2023/02/24 15:16:27;;;;;;;;;;;;;;;;;;4896306;29;19922;-72
2023/02/24 15:18:53;;;;;;;;;;;;;;;;;;4897624;29;20345;-73
2023/02/24 15:21:19;;;;;;;;;;;;;;;;;;4896553;29;20380;-73
2023/02/24 15:23:45;;;;;;;;;;;;;;;;;;4899228;29;19918;-72
2023/02/24 15:26:11;;;;;;;;;;;;;;;;;;4915129;28;19919;-70
2023/02/24 15:28:37;;;;;;;;;;;;;;;;;;4901328;29;19961;-72
2023/02/24 15:31:03;;;;;;;;;;;;;;;;;;4908522;29;19914;-71
2023/02/24 15:33:29;;;;;;;;;;;;;;;;;;4898449;29;20387;-71
2023/02/24 15:35:55;;;;;;;;;;;;;;;;;;4911916;28;19919;-73
2023/02/24 15:38:21;;;;;;;;;;;;;;;;;;4894201;29;20361;-73
2023/02/24 15:40:47;;;;;;;;;;;;;;;;;;4903879;29;19982;-72
2023/02/24 15:43:13;;;;;;;;;;;;;;;;;;4899484;29;20308;-73
2023/02/24 15:45:39;;;;;;;;;;;;;;;;;;4895289;29;20361;-73
2023/02/24 15:48:05;;;;;;;;;;;;;;;;;;4899632;29;20001;-73
2023/02/24 15:50:31;;;;;;;;;;;;;;;;;;4897855;29;20472;-73
2023/02/24 15:52:57;;;;;;;;;;;;;;;;;;4895460;29;19911;-73
2023/02/24 15:55:23;;;;;;;;;;;;;;;;;;4894965;29;19915;-71
2023/02/24 15:57:49;;;;;;;;;;;;;;;;;;4896677;29;19914;-72
2023/02/24 16:00:18;;;;;;;;;;;;;;;;;;4911622;28;19930;-72
2023/02/24 16:02:43;;;;;;;;;;;;;;;;;;4925119;28;20415;-71
2023/02/24 16:05:10;;;;;;;;;;;;;;;;;;4902086;28;20827;-71
2023/02/24 16:07:35;;;;;;;;;;;;;;;;;;4902204;28;19914;-71
2023/02/24 16:10:01;;;;;;;;;;;;;;;;;;4922944;28;20301;-71
2023/02/24 16:12:30;;;;;;;;;;;;;;;;;;4915638;28;20250;-72
2023/02/24 16:17:34;;;;;;;;;;;;;;;;;;5242348;23;20406;-73
2023/02/24 16:20:00;;;;;;;;;;;;;;;;;;4955859;28;19924;-72
2023/02/24 16:22:26;;;;;;;;;;;;;;;;;;4953912;28;19914;-73
2023/02/24 16:24:52;;;;;;;;;;;;;;;;;;4952364;28;20311;-73
2023/02/24 16:27:18;;;;;;;;;;;;;;;;;;4944125;28;20288;-72
2023/02/24 16:29:44;;;;;;;;;;;;;;;;;;4957555;28;19913;-72
2023/02/24 16:32:10;;;;;;;;;;;;;;;;;;4957289;28;20109;-73
2023/02/24 16:34:36;;;;;;;;;;;;;;;;;;4958346;28;21627;-73
2023/02/24 16:37:02;;;;;;;;;;;;;;;;;;4941193;28;20025;-72
2023/02/24 16:42:12;;;;;;;;;;;;;;;;;;4962256;28;20472;-73
2023/02/24 16:44:38;;;;;;;;;;;;;;;;;;4954313;28;19925;-73
2023/02/24 16:47:04;;;;;;;;;;;;;;;;;;4960088;28;20349;-73
2023/02/24 16:49:30;;;;;;;;;;;;;;;;;;4954512;28;19991;-74
2023/02/24 16:51:56;;;;;;;;;;;;;;;;;;4936631;28;20069;-74
2023/02/24 16:54:27;;;;;;;;;;;;;;;;;;4954378;28;20575;-75
2023/02/24 16:56:53;;;;;;;;;;;;;;;;;;4961212;28;19958;-74
2023/02/24 16:59:19;;;;;;;;;;;;;;;;;;4957963;28;20328;-74
2023/02/24 17:01:45;;;;;;;;;;;;;;;;;;4962857;28;19921;-74
2023/02/24 17:04:13;;;;;;;;;;;;;;;;;;4959245;28;20391;-74
2023/02/24 17:06:39;;;;;;;;;;;;;;;;;;4938865;28;19924;-74
2023/02/24 17:09:04;;;;;;;;;;;;;;;;;;4938620;28;19917;-73
2023/02/24 17:11:30;;;;;;;;;;;;;;;;;;4958297;28;19921;-74
2023/02/24 17:13:56;;;;;;;;;;;;;;;;;;4959913;28;19956;-73
2023/02/24 17:16:22;;;;;;;;;;;;;;;;;;4960325;28;20786;-73
2023/02/24 17:18:48;;;;;;;;;;;;;;;;;;4942052;28;19918;-73